createdAt,value
2023-01-21T00:00:39.239Z,88.55
2023-01-21T00:01:39.239Z,88.55
2023-01-21T00:02:39.252Z,88.55
2023-01-21T00:03:39.300Z,88.55
2023-01-21T00:04:39.199Z,88.55
2023-01-21T00:05:39.189Z,88.55
2023-01-21T00:06:39.169Z,88.55
2023-01-21T00:07:39.188Z,88.55
2023-01-21T00:08:39.151Z,88.45
2023-01-21T00:09:39.139Z,88.45
2023-01-21T00:10:39.154Z,88.45
2023-01-21T00:11:39.124Z,88.45
2023-01-21T00:12:39.113Z,88.34
2023-01-21T00:13:39.113Z,88.34
2023-01-21T00:14:39.084Z,88.38
2023-01-21T00:15:39.118Z,88.28
2023-01-21T00:16:39.061Z,88.28
2023-01-21T00:17:39.061Z,88.28
2023-01-21T00:18:39.084Z,88.28
2023-01-21T00:19:39.033Z,88.28
2023-01-21T00:20:39.017Z,88.28
2023-01-21T00:21:39.024Z,88.38
2023-01-21T00:22:39.011Z,88.28
2023-01-21T00:23:39.021Z,88.38
2023-01-21T00:24:38.974Z,88.38
2023-01-21T00:25:38.981Z,88.38
2023-01-21T00:26:38.949Z,88.49
2023-01-21T00:27:38.939Z,88.49
2023-01-21T00:28:38.920Z,88.49
2023-01-21T00:29:38.944Z,88.49
2023-01-21T00:30:38.936Z,88.49
2023-01-21T00:31:39.078Z,88.49
2023-01-21T00:32:38.886Z,88.49
2023-01-21T00:33:38.869Z,88.49
2023-01-21T00:34:38.865Z,88.49
2023-01-21T00:35:38.860Z,88.59
2023-01-21T00:36:38.846Z,88.59
2023-01-21T00:37:38.829Z,88.70
2023-01-21T00:38:38.837Z,88.70
2023-01-21T00:39:38.803Z,88.70
2023-01-21T00:40:38.821Z,88.70
2023-01-21T00:41:38.784Z,88.70
2023-01-21T00:42:38.768Z,88.80
2023-01-21T00:43:38.764Z,88.80
2023-01-21T00:44:38.762Z,88.80
2023-01-21T00:45:38.763Z,88.80
2023-01-21T00:46:38.805Z,88.80
2023-01-21T00:47:38.725Z,88.91
2023-01-21T00:48:38.715Z,88.91
2023-01-21T00:49:38.703Z,88.91
2023-01-21T00:50:38.681Z,88.91
2023-01-21T00:51:38.672Z,88.80
2023-01-21T00:52:38.659Z,88.80
2023-01-21T00:53:38.666Z,88.80
2023-01-21T00:54:38.644Z,88.80
2023-01-21T00:55:38.634Z,88.80
2023-01-21T00:56:38.629Z,88.80
2023-01-21T00:57:38.645Z,88.80
2023-01-21T00:58:38.618Z,88.70
2023-01-21T00:59:38.598Z,88.80
2023-01-21T01:00:38.595Z,88.70
2023-01-21T01:01:38.689Z,88.70
2023-01-21T01:02:38.641Z,88.70
2023-01-21T01:03:38.565Z,88.70
2023-01-21T01:04:38.567Z,88.70
2023-01-21T01:05:38.527Z,88.70
2023-01-21T01:06:38.511Z,88.70
2023-01-21T01:07:38.492Z,88.59
2023-01-21T01:08:38.509Z,88.59
2023-01-21T01:09:38.489Z,88.59
2023-01-21T01:10:38.519Z,88.63
2023-01-21T01:11:38.480Z,88.63
2023-01-21T01:12:38.436Z,88.63
2023-01-21T01:13:38.441Z,88.63
2023-01-21T01:14:38.428Z,88.59
2023-01-21T01:15:38.458Z,88.63
2023-01-21T01:16:38.412Z,88.63
2023-01-21T01:17:38.385Z,88.59
2023-01-21T01:18:38.376Z,88.49
2023-01-21T01:19:38.381Z,88.53
2023-01-21T01:20:38.355Z,88.53
2023-01-21T01:21:38.372Z,88.53
2023-01-21T01:22:38.338Z,88.53
2023-01-21T01:23:38.347Z,88.53
2023-01-21T01:24:38.319Z,88.42
2023-01-21T01:25:38.319Z,88.42
2023-01-21T01:26:39.523Z,88.42
2023-01-21T01:27:38.295Z,88.42
2023-01-21T01:28:38.283Z,88.42
2023-01-21T01:29:38.250Z,88.42
2023-01-21T01:30:38.309Z,88.42
2023-01-21T01:31:38.419Z,88.42
2023-01-21T01:32:38.225Z,88.42
2023-01-21T01:33:38.212Z,88.42
2023-01-21T01:34:38.194Z,88.42
2023-01-21T01:35:38.197Z,88.42
2023-01-21T01:36:38.173Z,88.42
2023-01-21T01:37:38.170Z,88.42
2023-01-21T01:38:38.156Z,88.42
2023-01-21T01:39:38.147Z,88.42
2023-01-21T01:40:38.126Z,88.42
2023-01-21T01:41:38.136Z,88.42
2023-01-21T01:42:38.136Z,88.42
2023-01-21T01:43:38.121Z,88.46
2023-01-21T01:44:38.096Z,88.35
2023-01-21T01:45:38.074Z,88.35
2023-01-21T01:46:38.119Z,88.46
2023-01-21T01:47:38.056Z,88.46
2023-01-21T01:48:38.051Z,88.46
2023-01-21T01:49:38.056Z,88.46
2023-01-21T01:50:38.018Z,88.46
2023-01-21T01:51:38.033Z,88.57
2023-01-21T01:52:37.999Z,88.57
2023-01-21T01:53:37.994Z,88.57
2023-01-21T01:54:37.980Z,88.57
2023-01-21T01:55:38.019Z,88.57
2023-01-21T01:56:37.964Z,88.67
2023-01-21T01:57:37.957Z,88.67
2023-01-21T01:58:37.932Z,88.67
2023-01-21T01:59:37.931Z,88.67
2023-01-21T02:00:37.917Z,88.67
2023-01-21T02:01:37.946Z,88.67
2023-01-21T02:02:37.929Z,88.67
2023-01-21T02:03:37.888Z,88.67
2023-01-21T02:04:37.863Z,88.78
2023-01-21T02:05:37.875Z,88.67
2023-01-21T02:06:37.844Z,88.67
2023-01-21T02:07:37.836Z,88.67
2023-01-21T02:08:37.821Z,88.78
2023-01-21T02:09:37.810Z,88.78
2023-01-21T02:10:37.840Z,88.78
2023-01-21T02:11:37.808Z,88.78
2023-01-21T02:12:37.776Z,88.78
2023-01-21T02:13:37.767Z,88.78
2023-01-21T02:14:37.760Z,88.78
2023-01-21T02:15:37.750Z,88.78
2023-01-21T02:16:37.831Z,88.78
2023-01-21T02:17:37.753Z,88.78
2023-01-21T02:18:37.722Z,88.78
2023-01-21T02:19:37.692Z,88.82
2023-01-21T02:20:37.700Z,88.82
2023-01-21T02:21:37.740Z,88.82
2023-01-21T02:22:37.677Z,88.82
2023-01-21T02:23:37.658Z,88.82
2023-01-21T02:24:37.654Z,88.82
2023-01-21T02:25:37.629Z,88.92
2023-01-21T02:26:37.632Z,88.92
2023-01-21T02:27:37.638Z,88.92
2023-01-21T02:28:37.614Z,88.92
2023-01-21T02:29:37.586Z,88.82
2023-01-21T02:30:37.610Z,88.92
2023-01-21T02:31:37.608Z,88.82
2023-01-21T02:32:37.554Z,88.82
2023-01-21T02:33:37.559Z,88.82
2023-01-21T02:34:37.540Z,88.82
2023-01-21T02:35:37.534Z,88.92
2023-01-21T02:36:37.513Z,88.92
2023-01-21T02:37:37.508Z,88.92
2023-01-21T02:38:37.527Z,88.92
2023-01-21T02:39:37.484Z,88.92
2023-01-21T02:40:37.471Z,88.92
2023-01-21T02:41:37.453Z,89.03
2023-01-21T02:42:37.455Z,88.92
2023-01-21T02:43:37.447Z,89.03
2023-01-21T02:44:37.445Z,88.92
2023-01-21T02:45:37.425Z,89.03
2023-01-21T02:46:37.452Z,88.92
2023-01-21T02:47:37.390Z,88.92
2023-01-21T02:48:37.394Z,88.92
2023-01-21T02:49:37.395Z,88.92
2023-01-21T02:50:37.390Z,89.03
2023-01-21T02:51:37.352Z,88.92
2023-01-21T02:52:37.346Z,88.92
2023-01-21T02:53:37.343Z,89.03
2023-01-21T02:54:37.340Z,89.03
2023-01-21T02:55:37.304Z,89.03
2023-01-21T02:56:37.314Z,89.03
2023-01-21T02:57:37.279Z,88.92
2023-01-21T02:58:37.269Z,88.92
2023-01-21T02:59:37.264Z,88.92
2023-01-21T03:00:37.304Z,88.92
2023-01-21T03:01:37.272Z,88.92
2023-01-21T03:02:37.229Z,89.03
2023-01-21T03:03:37.449Z,89.03
2023-01-21T03:04:37.214Z,88.92
2023-01-21T03:05:37.189Z,88.92
2023-01-21T03:06:37.217Z,88.92
2023-01-21T03:07:37.183Z,89.03
2023-01-21T03:08:37.169Z,88.92
2023-01-21T03:09:37.167Z,88.92
2023-01-21T03:10:37.141Z,88.92
2023-01-21T03:11:37.130Z,88.92
2023-01-21T03:12:37.161Z,88.96
2023-01-21T03:13:37.122Z,88.96
2023-01-21T03:14:37.096Z,88.92
2023-01-21T03:15:37.109Z,88.96
2023-01-21T03:16:37.228Z,88.96
2023-01-21T03:17:37.086Z,88.96
2023-01-21T03:18:37.079Z,88.96
2023-01-21T03:19:37.068Z,89.07
2023-01-21T03:20:37.040Z,89.03
2023-01-21T03:21:37.025Z,89.03
2023-01-21T03:22:37.008Z,89.03
2023-01-21T03:23:37.016Z,89.03
2023-01-21T03:24:37.011Z,89.03
2023-01-21T03:25:36.985Z,89.03
2023-01-21T03:26:36.975Z,89.03
2023-01-21T03:27:36.987Z,89.03
2023-01-21T03:28:36.943Z,89.03
2023-01-21T03:29:36.982Z,89.03
2023-01-21T03:30:36.953Z,89.03
2023-01-21T03:31:36.928Z,89.03
2023-01-21T03:32:36.923Z,89.03
2023-01-21T03:33:36.910Z,89.03
2023-01-21T03:34:36.902Z,89.03
2023-01-21T03:35:36.859Z,89.03
2023-01-21T03:36:36.865Z,89.07
2023-01-21T03:37:36.836Z,89.17
2023-01-21T03:38:36.838Z,89.17
2023-01-21T03:39:36.824Z,89.17
2023-01-21T03:40:36.837Z,89.17
2023-01-21T03:41:36.798Z,89.17
2023-01-21T03:42:36.801Z,89.17
2023-01-21T03:43:36.775Z,89.17
2023-01-21T03:44:36.774Z,89.17
2023-01-21T03:45:36.851Z,89.17
2023-01-21T03:46:36.764Z,89.17
2023-01-21T03:47:36.748Z,89.17
2023-01-21T03:48:36.719Z,89.17
2023-01-21T03:49:36.736Z,89.17
2023-01-21T03:50:36.706Z,89.17
2023-01-21T03:51:36.697Z,89.17
2023-01-21T03:52:36.681Z,89.17
2023-01-21T03:53:36.692Z,89.14
2023-01-21T03:54:36.673Z,89.17
2023-01-21T03:55:36.653Z,89.17
2023-01-21T03:56:36.679Z,89.17
2023-01-21T03:57:36.635Z,89.07
2023-01-21T03:58:36.617Z,89.07
2023-01-21T03:59:36.601Z,89.07
2023-01-21T04:00:36.645Z,88.96
2023-01-21T04:01:36.587Z,89.07
2023-01-21T04:02:36.589Z,88.96
2023-01-21T04:03:36.566Z,88.96
2023-01-21T04:04:36.552Z,88.96
2023-01-21T04:05:36.543Z,88.96
2023-01-21T04:06:36.525Z,88.96
2023-01-21T04:07:36.523Z,88.96
2023-01-21T04:08:36.532Z,88.96
2023-01-21T04:09:36.500Z,88.96
2023-01-21T04:10:36.505Z,89.00
2023-01-21T04:11:36.476Z,89.00
2023-01-21T04:12:36.469Z,89.00
2023-01-21T04:13:36.453Z,89.00
2023-01-21T04:14:36.456Z,89.00
2023-01-21T04:15:36.436Z,89.00
2023-01-21T04:16:36.518Z,89.00
2023-01-21T04:17:36.436Z,89.00
2023-01-21T04:18:36.395Z,89.00
2023-01-21T04:19:36.432Z,89.00
2023-01-21T04:20:36.381Z,89.00
2023-01-21T04:21:36.373Z,89.00
2023-01-21T04:22:36.363Z,89.00
2023-01-21T04:23:36.346Z,89.11
2023-01-21T04:24:36.371Z,89.11
2023-01-21T04:25:36.325Z,89.11
2023-01-21T04:26:36.308Z,89.11
2023-01-21T04:27:36.320Z,89.11
2023-01-21T04:28:36.319Z,89.22
2023-01-21T04:29:36.272Z,89.11
2023-01-21T04:30:36.291Z,89.11
2023-01-21T04:31:36.296Z,89.22
2023-01-21T04:32:36.252Z,89.22
2023-01-21T04:33:36.240Z,89.22
2023-01-21T04:34:36.223Z,89.22
2023-01-21T04:35:36.222Z,89.22
2023-01-21T04:36:36.204Z,89.22
2023-01-21T04:37:36.188Z,89.22
2023-01-21T04:38:36.189Z,89.22
2023-01-21T04:39:36.178Z,89.22
2023-01-21T04:40:36.149Z,89.22
2023-01-21T04:41:36.178Z,89.22
2023-01-21T04:42:36.131Z,89.22
2023-01-21T04:43:36.122Z,89.22
2023-01-21T04:44:36.144Z,89.22
2023-01-21T04:45:36.121Z,89.22
2023-01-21T04:46:36.084Z,89.22
2023-01-21T04:47:36.222Z,89.22
2023-01-21T04:48:36.081Z,89.22
2023-01-21T04:49:36.056Z,89.22
2023-01-21T04:50:36.089Z,89.22
2023-01-21T04:51:36.072Z,89.22
2023-01-21T04:52:36.017Z,89.22
2023-01-21T04:53:36.042Z,89.22
2023-01-21T04:54:35.999Z,89.22
2023-01-21T04:55:35.987Z,89.22
2023-01-21T04:56:35.983Z,89.25
2023-01-21T04:57:35.995Z,89.25
2023-01-21T04:58:35.987Z,89.36
2023-01-21T04:59:35.958Z,89.25
2023-01-21T05:00:35.949Z,89.36
2023-01-21T05:01:35.925Z,89.36
2023-01-21T05:02:35.995Z,89.36
2023-01-21T05:03:35.923Z,89.36
2023-01-21T05:04:35.919Z,89.36
2023-01-21T05:05:35.894Z,89.36
2023-01-21T05:06:35.887Z,89.36
2023-01-21T05:07:35.853Z,89.36
2023-01-21T05:08:35.858Z,89.47
2023-01-21T05:09:35.854Z,89.47
2023-01-21T05:10:35.822Z,89.47
2023-01-21T05:11:35.815Z,89.47
2023-01-21T05:12:35.830Z,89.47
2023-01-21T05:13:35.795Z,89.47
2023-01-21T05:14:35.789Z,89.47
2023-01-21T05:15:35.820Z,89.47
2023-01-21T05:16:35.825Z,89.47
2023-01-21T05:17:35.765Z,89.47
2023-01-21T05:18:35.763Z,89.47
2023-01-21T05:19:35.720Z,89.47
2023-01-21T05:20:35.735Z,89.47
2023-01-21T05:21:35.698Z,89.36
2023-01-21T05:22:35.699Z,89.47
2023-01-21T05:23:35.718Z,89.47
2023-01-21T05:24:35.670Z,89.47
2023-01-21T05:25:35.663Z,89.47
2023-01-21T05:26:35.649Z,89.47
2023-01-21T05:27:35.666Z,89.47
2023-01-21T05:28:35.636Z,89.47
2023-01-21T05:29:35.619Z,89.47
2023-01-21T05:30:35.685Z,89.47
2023-01-21T05:31:35.692Z,89.47
2023-01-21T05:32:35.594Z,89.57
2023-01-21T05:33:35.584Z,89.47
2023-01-21T05:34:35.563Z,89.47
2023-01-21T05:35:35.594Z,89.47
2023-01-21T05:36:35.557Z,89.47
2023-01-21T05:37:35.518Z,89.47
2023-01-21T05:38:35.513Z,89.47
2023-01-21T05:39:35.528Z,89.47
2023-01-21T05:40:35.517Z,89.36
2023-01-21T05:41:35.493Z,89.36
2023-01-21T05:42:35.461Z,89.36
2023-01-21T05:43:35.464Z,89.36
2023-01-21T05:44:35.457Z,89.36
2023-01-21T05:45:35.448Z,89.36
2023-01-21T05:46:35.454Z,89.36
2023-01-21T05:47:35.441Z,89.36
2023-01-21T05:48:35.436Z,89.36
2023-01-21T05:49:35.409Z,89.36
2023-01-21T05:50:35.407Z,89.36
2023-01-21T05:51:35.376Z,89.36
2023-01-21T05:52:35.361Z,89.36
2023-01-21T05:53:35.356Z,89.36
2023-01-21T05:54:35.350Z,89.47
2023-01-21T05:55:35.333Z,89.47
2023-01-21T05:56:35.458Z,89.47
2023-01-21T05:57:35.298Z,89.47
2023-01-21T05:58:35.297Z,89.47
2023-01-21T05:59:35.300Z,89.47
2023-01-21T06:00:35.293Z,89.47
2023-01-21T06:01:35.283Z,89.47
2023-01-21T06:02:35.287Z,89.47
2023-01-21T06:03:35.306Z,89.47
2023-01-21T06:04:35.243Z,89.47
2023-01-21T06:05:35.233Z,89.47
2023-01-21T06:06:35.253Z,89.47
2023-01-21T06:07:35.219Z,89.47
2023-01-21T06:08:35.193Z,89.47
2023-01-21T06:09:35.161Z,89.47
2023-01-21T06:10:35.165Z,89.47
2023-01-21T06:11:35.159Z,89.47
2023-01-21T06:12:35.140Z,89.47
2023-01-21T06:13:35.133Z,89.47
2023-01-21T06:14:35.133Z,89.47
2023-01-21T06:15:35.144Z,89.57
2023-01-21T06:16:35.118Z,89.47
2023-01-21T06:17:35.086Z,89.47
2023-01-21T06:18:35.090Z,89.47
2023-01-21T06:19:35.059Z,89.47
2023-01-21T06:20:35.094Z,89.47
2023-01-21T06:21:35.107Z,89.47
2023-01-21T06:22:35.063Z,89.47
2023-01-21T06:23:35.019Z,89.47
2023-01-21T06:24:35.007Z,89.47
2023-01-21T06:25:35.002Z,89.47
2023-01-21T06:26:34.990Z,89.47
2023-01-21T06:27:34.974Z,89.51
2023-01-21T06:28:34.985Z,89.51
2023-01-21T06:29:34.966Z,89.47
2023-01-21T06:30:34.960Z,89.47
2023-01-21T06:31:35.022Z,89.47
2023-01-21T06:32:34.930Z,89.47
2023-01-21T06:33:34.920Z,89.47
2023-01-21T06:34:34.921Z,89.47
2023-01-21T06:35:34.902Z,89.36
2023-01-21T06:36:34.879Z,89.40
2023-01-21T06:37:34.868Z,89.40
2023-01-21T06:38:34.875Z,89.40
2023-01-21T06:39:34.847Z,89.40
2023-01-21T06:40:34.844Z,89.29
2023-01-21T06:41:34.823Z,89.40
2023-01-21T06:42:34.830Z,89.29
2023-01-21T06:43:34.810Z,89.29
2023-01-21T06:44:34.784Z,89.29
2023-01-21T06:45:34.787Z,89.29
2023-01-21T06:46:34.840Z,89.29
2023-01-21T06:47:34.753Z,89.29
2023-01-21T06:48:34.751Z,89.29
2023-01-21T06:49:34.724Z,89.29
2023-01-21T06:50:34.738Z,89.29
2023-01-21T06:51:34.723Z,89.29
2023-01-21T06:52:34.695Z,89.29
2023-01-21T06:53:34.682Z,89.29
2023-01-21T06:54:34.711Z,89.29
2023-01-21T06:55:34.672Z,89.40
2023-01-21T06:56:34.671Z,89.40
2023-01-21T06:57:34.655Z,89.40
2023-01-21T06:58:34.651Z,89.51
2023-01-21T06:59:34.656Z,89.51
2023-01-21T07:00:34.626Z,89.51
2023-01-21T07:01:34.651Z,89.51
2023-01-21T07:02:34.672Z,89.61
2023-01-21T07:03:34.610Z,89.61
2023-01-21T07:04:34.614Z,89.61
2023-01-21T07:05:34.559Z,89.61
2023-01-21T07:06:34.563Z,89.61
2023-01-21T07:07:34.550Z,89.61
2023-01-21T07:08:34.537Z,89.61
2023-01-21T07:09:34.518Z,89.61
2023-01-21T07:10:34.507Z,89.61
2023-01-21T07:11:34.494Z,89.72
2023-01-21T07:12:34.556Z,89.72
2023-01-21T07:13:34.460Z,89.72
2023-01-21T07:14:34.464Z,89.72
2023-01-21T07:15:34.454Z,89.72
2023-01-21T07:16:34.474Z,89.72
2023-01-21T07:17:34.420Z,89.72
2023-01-21T07:18:34.403Z,89.72
2023-01-21T07:19:34.422Z,89.72
2023-01-21T07:20:34.420Z,89.72
2023-01-21T07:21:34.383Z,89.72
2023-01-21T07:22:34.378Z,89.72
2023-01-21T07:23:34.356Z,89.72
2023-01-21T07:24:34.366Z,89.72
2023-01-21T07:25:34.382Z,89.72
2023-01-21T07:26:34.481Z,89.68
2023-01-21T07:27:34.357Z,89.68
2023-01-21T07:28:34.705Z,89.68
2023-01-21T07:29:34.463Z,89.68
2023-01-21T07:30:34.280Z,89.68
2023-01-21T07:31:34.466Z,89.57
2023-01-21T07:32:34.248Z,89.57
2023-01-21T07:33:34.249Z,89.68
2023-01-21T07:34:34.225Z,89.57
2023-01-21T07:35:34.258Z,89.57
2023-01-21T07:36:34.219Z,89.68
2023-01-21T07:37:34.206Z,89.57
2023-01-21T07:38:34.196Z,89.57
2023-01-21T07:39:34.179Z,89.57
2023-01-21T07:40:34.200Z,89.57
2023-01-21T07:41:34.173Z,89.57
2023-01-21T07:42:34.164Z,89.53
2023-01-21T07:43:34.133Z,89.53
2023-01-21T07:44:34.141Z,89.53
2023-01-21T07:45:34.121Z,89.53
2023-01-21T07:46:34.125Z,89.64
2023-01-21T07:47:34.100Z,89.64
2023-01-21T07:48:34.096Z,89.64
2023-01-21T07:49:34.063Z,89.53
2023-01-21T07:50:34.128Z,89.53
2023-01-21T07:51:34.061Z,89.53
2023-01-21T07:52:34.460Z,89.49
2023-01-21T07:53:35.152Z,89.49
2023-01-21T07:54:34.017Z,89.39
2023-01-21T07:55:33.994Z,89.39
2023-01-21T07:56:34.008Z,89.39
2023-01-21T07:57:34.000Z,89.28
2023-01-21T07:58:33.961Z,89.28
2023-01-21T07:59:33.974Z,89.28
2023-01-21T08:00:33.945Z,89.28
2023-01-21T08:01:33.993Z,89.28
2023-01-21T08:02:34.058Z,89.28
2023-01-21T08:03:33.914Z,89.24
2023-01-21T08:04:33.913Z,89.14
2023-01-21T08:05:33.918Z,89.14
2023-01-21T08:06:33.895Z,89.03
2023-01-21T08:07:33.900Z,89.03
2023-01-21T08:08:33.863Z,88.92
2023-01-21T08:09:33.975Z,88.92
2023-01-21T08:10:33.841Z,88.89
2023-01-21T08:11:34.050Z,88.92
2023-01-21T08:12:33.825Z,88.89
2023-01-21T08:13:33.799Z,88.67
2023-01-21T08:14:33.803Z,88.67
2023-01-21T08:15:33.782Z,88.67
2023-01-21T08:16:33.835Z,88.57
2023-01-21T08:17:33.786Z,88.57
2023-01-21T08:18:33.744Z,88.46
2023-01-21T08:19:33.764Z,88.35
2023-01-21T08:20:33.724Z,88.32
2023-01-21T08:21:33.739Z,88.32
2023-01-21T08:22:33.729Z,88.32
2023-01-21T08:23:33.686Z,88.32
2023-01-21T08:24:33.686Z,88.21
2023-01-21T08:25:33.699Z,88.21
2023-01-21T08:26:33.662Z,88.17
2023-01-21T08:27:33.664Z,88.07
2023-01-21T08:28:33.643Z,88.07
2023-01-21T08:29:33.638Z,87.96
2023-01-21T08:30:33.650Z,87.96
2023-01-21T08:31:33.649Z,87.96
2023-01-21T08:32:33.598Z,87.96
2023-01-21T08:33:33.607Z,87.85
2023-01-21T08:34:33.572Z,87.82
2023-01-21T08:35:33.821Z,87.71
2023-01-21T08:36:33.546Z,87.71
2023-01-21T08:37:33.559Z,87.60
2023-01-21T08:38:33.570Z,87.60
2023-01-21T08:39:33.522Z,87.50
2023-01-21T08:40:33.534Z,87.50
2023-01-21T08:41:33.963Z,87.50
2023-01-21T08:42:33.506Z,87.50
2023-01-21T08:43:33.477Z,87.40
2023-01-21T08:44:33.482Z,87.40
2023-01-21T08:45:33.502Z,87.40
2023-01-21T08:46:33.454Z,87.40
2023-01-21T08:47:33.463Z,87.40
2023-01-21T08:48:33.410Z,87.40
2023-01-21T08:49:33.588Z,87.29
2023-01-21T08:50:33.395Z,87.29
2023-01-21T08:51:33.386Z,87.40
2023-01-21T08:52:33.392Z,87.40
2023-01-21T08:53:33.364Z,87.40
2023-01-21T08:54:33.362Z,87.25
2023-01-21T08:55:33.399Z,87.15
2023-01-21T08:56:33.345Z,87.15
2023-01-21T08:57:33.312Z,87.15
2023-01-21T08:58:33.334Z,87.04
2023-01-21T08:59:33.294Z,87.04
2023-01-21T09:00:33.350Z,86.94
2023-01-21T09:01:33.317Z,86.94
2023-01-21T09:02:33.278Z,86.94
2023-01-21T09:03:33.254Z,86.90
2023-01-21T09:04:33.261Z,86.79
2023-01-21T09:05:33.432Z,86.79
2023-01-21T09:06:33.225Z,86.90
2023-01-21T09:07:33.211Z,86.79
2023-01-21T09:08:33.204Z,86.79
2023-01-21T09:09:33.224Z,86.69
2023-01-21T09:10:33.182Z,86.58
2023-01-21T09:11:33.173Z,86.58
2023-01-21T09:12:33.148Z,86.58
2023-01-21T09:13:33.169Z,86.58
2023-01-21T09:14:33.145Z,86.54
2023-01-21T09:15:33.164Z,86.44
2023-01-21T09:16:33.127Z,86.33
2023-01-21T09:17:33.096Z,86.23
2023-01-21T09:18:33.108Z,86.12
2023-01-21T09:19:33.115Z,86.02
2023-01-21T09:20:33.059Z,86.12
2023-01-21T09:21:33.052Z,86.02
2023-01-21T09:22:33.046Z,86.02
2023-01-21T09:23:33.026Z,86.08
2023-01-21T09:24:33.045Z,86.12
2023-01-21T09:25:33.028Z,85.98
2023-01-21T09:26:33.014Z,85.98
2023-01-21T09:27:33.009Z,85.98
2023-01-21T09:28:32.995Z,85.77
2023-01-21T09:29:32.965Z,85.77
2023-01-21T09:30:32.967Z,85.77
2023-01-21T09:31:32.985Z,85.66
2023-01-21T09:32:32.933Z,85.56
2023-01-21T09:33:32.935Z,85.46
2023-01-21T09:34:35.447Z,85.31
2023-01-21T09:35:32.886Z,85.35
2023-01-21T09:36:32.885Z,85.31
2023-01-21T09:37:32.891Z,85.42
2023-01-21T09:38:32.855Z,85.31
2023-01-21T09:39:32.870Z,85.31
2023-01-21T09:40:32.829Z,85.31
2023-01-21T09:41:32.825Z,85.10
2023-01-21T09:42:32.845Z,85.00
2023-01-21T09:43:32.843Z,85.00
2023-01-21T09:44:32.793Z,84.89
2023-01-21T09:45:32.801Z,84.89
2023-01-21T09:46:32.774Z,85.00
2023-01-21T09:47:32.775Z,84.96
2023-01-21T09:48:32.753Z,84.96
2023-01-21T09:49:32.759Z,84.85
2023-01-21T09:50:32.753Z,84.75
2023-01-21T09:51:32.720Z,84.54
2023-01-21T09:52:32.720Z,84.54
2023-01-21T09:53:32.700Z,84.64
2023-01-21T09:54:32.725Z,84.64
2023-01-21T09:55:32.696Z,84.64
2023-01-21T09:56:32.686Z,84.64
2023-01-21T09:57:32.646Z,84.44
2023-01-21T09:58:32.639Z,84.44
2023-01-21T09:59:32.626Z,84.44
2023-01-21T10:00:32.635Z,84.33
2023-01-21T10:01:32.649Z,84.22
2023-01-21T10:02:32.602Z,84.12
2023-01-21T10:03:32.600Z,84.12
2023-01-21T10:04:32.657Z,84.12
2023-01-21T10:05:32.782Z,84.12
2023-01-21T10:06:32.587Z,84.12
2023-01-21T10:07:32.553Z,84.12
2023-01-21T10:08:32.527Z,84.22
2023-01-21T10:09:32.523Z,84.33
2023-01-21T10:10:32.572Z,84.22
2023-01-21T10:11:32.502Z,84.33
2023-01-21T10:12:32.564Z,84.33
2023-01-21T10:13:33.662Z,84.29
2023-01-21T10:14:32.729Z,84.29
2023-01-21T10:15:32.455Z,84.19
2023-01-21T10:16:32.469Z,84.19
2023-01-21T10:17:33.356Z,84.08
2023-01-21T10:18:33.436Z,83.98
2023-01-21T10:19:32.416Z,84.08
2023-01-21T10:20:32.523Z,84.08
2023-01-21T10:21:32.590Z,83.98
2023-01-21T10:22:32.478Z,83.87
2023-01-21T10:23:32.578Z,83.77
2023-01-21T10:24:32.389Z,83.66
2023-01-21T10:25:33.038Z,83.77
2023-01-21T10:26:32.677Z,83.83
2023-01-21T10:27:32.376Z,83.83
2023-01-21T10:28:32.378Z,83.62
2023-01-21T10:29:32.462Z,83.45
2023-01-21T10:30:32.418Z,83.52
2023-01-21T10:31:32.481Z,83.56
2023-01-21T10:32:32.512Z,83.35
2023-01-21T10:33:32.289Z,83.56
2023-01-21T10:34:32.261Z,83.62
2023-01-21T10:35:32.226Z,83.52
2023-01-21T10:36:35.005Z,83.62
2023-01-21T10:37:32.227Z,83.62
2023-01-21T10:38:32.198Z,83.42
2023-01-21T10:39:32.187Z,83.31
2023-01-21T10:40:32.194Z,83.42
2023-01-21T10:41:32.179Z,83.31
2023-01-21T10:42:32.155Z,83.31
2023-01-21T10:43:32.143Z,83.27
2023-01-21T10:44:32.133Z,83.27
2023-01-21T10:45:32.123Z,83.27
2023-01-21T10:46:32.120Z,83.06
2023-01-21T10:47:32.141Z,82.96
2023-01-21T10:48:32.091Z,83.06
2023-01-21T10:49:32.076Z,82.75
2023-01-21T10:50:32.113Z,82.43
2023-01-21T10:51:32.074Z,82.43
2023-01-21T10:52:32.057Z,82.33
2023-01-21T10:53:32.035Z,82.33
2023-01-21T10:54:32.037Z,82.33
2023-01-21T10:55:32.020Z,82.43
2023-01-21T10:56:32.021Z,82.54
2023-01-21T10:57:32.000Z,82.65
2023-01-21T10:58:31.986Z,82.65
2023-01-21T10:59:33.368Z,82.86
2023-01-21T11:00:31.970Z,82.75
2023-01-21T11:01:32.005Z,82.75
2023-01-21T11:02:32.025Z,82.65
2023-01-21T11:03:31.998Z,82.65
2023-01-21T11:04:31.924Z,82.65
2023-01-21T11:05:31.942Z,82.75
2023-01-21T11:06:31.927Z,82.75
2023-01-21T11:07:32.164Z,82.75
2023-01-21T11:08:31.970Z,82.65
2023-01-21T11:09:31.866Z,82.33
2023-01-21T11:10:31.853Z,82.33
2023-01-21T11:11:31.846Z,82.40
2023-01-21T11:12:31.862Z,82.40
2023-01-21T11:13:31.811Z,82.29
2023-01-21T11:14:31.804Z,82.15
2023-01-21T11:15:31.834Z,82.05
2023-01-21T11:16:31.785Z,81.84
2023-01-21T11:17:31.801Z,81.63
2023-01-21T11:18:31.766Z,81.52
2023-01-21T11:19:31.747Z,81.42
2023-01-21T11:20:31.762Z,81.59
2023-01-21T11:21:31.723Z,81.28
2023-01-21T11:22:31.718Z,81.07
2023-01-21T11:23:31.701Z,81.07
2023-01-21T11:24:31.698Z,81.18
2023-01-21T11:25:31.690Z,80.65
2023-01-21T11:26:31.695Z,80.55
2023-01-21T11:27:31.708Z,80.55
2023-01-21T11:28:31.649Z,80.65
2023-01-21T11:29:31.647Z,80.76
2023-01-21T11:30:48.684Z,80.96
2023-01-21T11:31:31.689Z,80.76
2023-01-21T11:32:31.613Z,80.65
2023-01-21T11:33:31.597Z,80.76
2023-01-21T11:34:31.615Z,80.76
2023-01-21T11:35:31.566Z,80.86
2023-01-21T11:36:31.557Z,80.96
2023-01-21T11:37:31.561Z,81.03
2023-01-21T11:38:31.532Z,81.03
2023-01-21T11:39:31.578Z,80.82
2023-01-21T11:40:31.511Z,80.65
2023-01-21T11:41:31.516Z,80.41
2023-01-21T11:42:31.531Z,80.62
2023-01-21T11:43:31.499Z,80.72
2023-01-21T11:44:31.469Z,80.72
2023-01-21T11:45:31.463Z,80.62
2023-01-21T11:46:31.594Z,80.41
2023-01-21T11:47:31.442Z,80.41
2023-01-21T11:48:31.439Z,80.41
2023-01-21T11:49:31.473Z,80.62
2023-01-21T11:50:31.406Z,80.51
2023-01-21T11:51:31.393Z,80.20
2023-01-21T11:52:31.403Z,80.30
2023-01-21T11:53:31.427Z,80.30
2023-01-21T11:54:31.358Z,80.30
2023-01-21T11:55:31.352Z,80.41
2023-01-21T11:56:31.359Z,80.37
2023-01-21T11:57:31.340Z,80.37
2023-01-21T11:58:31.393Z,80.37
2023-01-21T11:59:33.916Z,80.20
2023-01-21T12:00:31.309Z,80.09
2023-01-21T12:01:31.284Z,80.20
2023-01-21T12:02:31.371Z,80.41
2023-01-21T12:03:31.290Z,80.20
2023-01-21T12:04:31.268Z,80.30
2023-01-21T12:05:31.252Z,80.51
2023-01-21T12:06:31.254Z,80.41
2023-01-21T12:07:31.207Z,80.51
2023-01-21T12:08:31.213Z,80.62
2023-01-21T12:09:31.209Z,80.72
2023-01-21T12:10:31.223Z,80.51
2023-01-21T12:11:31.173Z,80.30
2023-01-21T12:12:31.163Z,80.30
2023-01-21T12:13:31.180Z,80.30
2023-01-21T12:14:31.139Z,80.51
2023-01-21T12:15:31.155Z,80.72
2023-01-21T12:16:31.208Z,80.72
2023-01-21T12:17:31.123Z,80.82
2023-01-21T12:18:31.106Z,80.79
2023-01-21T12:19:31.095Z,80.79
2023-01-21T12:20:31.076Z,80.79
2023-01-21T12:21:31.077Z,80.47
2023-01-21T12:22:31.062Z,80.37
2023-01-21T12:23:31.040Z,80.27
2023-01-21T12:24:31.028Z,80.27
2023-01-21T12:25:31.021Z,80.37
2023-01-21T12:26:31.045Z,80.27
2023-01-21T12:27:31.028Z,80.09
2023-01-21T12:28:31.028Z,80.20
2023-01-21T12:29:30.980Z,80.27
2023-01-21T12:30:31.099Z,80.47
2023-01-21T12:31:30.988Z,80.27
2023-01-21T12:32:30.957Z,80.37
2023-01-21T12:33:30.937Z,80.27
2023-01-21T12:34:30.942Z,80.16
2023-01-21T12:35:30.933Z,80.23
2023-01-21T12:36:30.909Z,80.16
2023-01-21T12:37:30.891Z,80.05
2023-01-21T12:38:30.898Z,80.23
2023-01-21T12:39:30.877Z,80.23
2023-01-21T12:40:30.859Z,79.91
2023-01-21T12:41:30.849Z,80.13
2023-01-21T12:42:30.849Z,80.23
2023-01-21T12:43:30.826Z,80.02
2023-01-21T12:44:30.854Z,80.05
2023-01-21T12:45:30.812Z,80.16
2023-01-21T12:46:30.836Z,80.27
2023-01-21T12:47:30.822Z,79.95
2023-01-21T12:48:30.777Z,80.27
2023-01-21T12:49:30.769Z,80.37
2023-01-21T12:50:30.772Z,80.47
2023-01-21T12:51:30.732Z,80.47
2023-01-21T12:52:30.736Z,80.47